Time;durP1;ratioP1;P1;durP2;ratioP2;P2;SDS_P1;SDS_P2;PMS_P1;PMS_P2;Temp;Humidity;BMP_temperature;BMP_pressure;BME280_temperature;BME280_humidity;BME280_pressure;Samples;Min_cycle;Max_cycle;Signal;HPM_P1;HPM_P2
2022/12/10 00:02:26;;;;;;;14.20;12.70;;;;;;;;;;108056;1279;22585;-30
2022/12/10 00:04:58;;;;;;;15.10;13.00;;;;;;;;;;108053;1279;22581;-29
2022/12/10 00:07:31;;;;;;;14.80;13.30;;;;;;;;;;108052;1282;22578;-30
2022/12/10 00:10:04;;;;;;;15.80;14.10;;;;;;;;;;108036;1280;22575;-29
2022/12/10 00:12:37;;;;;;;16.50;13.40;;;;;;;;;;108160;1277;22565;-29
2022/12/10 00:15:12;;;;;;;15.40;13.00;;;;;;;;;;108156;1278;24888;-30
2022/12/10 00:17:44;;;;;;;14.80;12.90;;;;;;;;;;108174;1278;24847;-29
2022/12/10 00:20:16;;;;;;;14.10;12.60;;;;;;;;;;108132;1276;22606;-30
2022/12/10 00:22:49;;;;;;;14.40;12.90;;;;;;;;;;108081;1280;22519;-30
2022/12/10 00:25:21;;;;;;;14.50;12.90;;;;;;;;;;108059;1278;24990;-30
2022/12/10 00:27:53;;;;;;;15.10;13.50;;;;;;;;;;108055;1280;22606;-30
2022/12/10 00:30:28;;;;;;;15.20;13.70;;;;;;;;;;108036;1279;22616;-30
2022/12/10 00:33:01;;;;;;;14.00;12.50;;;;;;;;;;108127;1277;24874;-31
2022/12/10 00:35:37;;;;;;;14.40;12.90;;;;;;;;;;108183;1278;22582;-30
2022/12/10 00:38:09;;;;;;;15.00;13.20;;;;;;;;;;108155;1278;22578;-29
2022/12/10 00:40:42;;;;;;;16.80;13.80;;;;;;;;;;108076;1272;25282;-31
2022/12/10 00:43:14;;;;;;;14.70;13.10;;;;;;;;;;108059;1280;22683;-30
2022/12/10 00:45:49;;;;;;;14.30;12.80;;;;;;;;;;108089;1279;22605;-30
2022/12/10 00:48:22;;;;;;;14.90;13.20;;;;;;;;;;108066;1280;22585;-30
2022/12/10 00:51:02;;;;;;;15.70;13.40;;;;;;;;;;108066;1278;22572;-30
2022/12/10 00:53:37;;;;;;;13.90;12.50;;;;;;;;;;108156;1279;22645;-30
2022/12/10 00:56:12;;;;;;;14.80;13.20;;;;;;;;;;108146;1277;22568;-30
2022/12/10 00:58:44;;;;;;;14.30;12.80;;;;;;;;;;108152;1271;22567;-30
2022/12/10 01:01:24;;;;;;;14.50;12.80;;;;;;;;;;108095;1275;22523;-31
2022/12/10 01:04:00;;;;;;;16.50;12.80;;;;;;;;;;108069;1279;22564;-30
2022/12/10 01:06:37;;;;;;;14.90;12.80;;;;;;;;;;108095;1279;22624;-31
2022/12/10 01:09:13;;;;;;;14.40;12.40;;;;;;;;;;108084;1279;22587;-30
2022/12/10 01:11:48;;;;;;;15.50;13.40;;;;;;;;;;108063;1278;22561;-30
2022/12/10 01:14:26;;;;;;;14.30;12.70;;;;;;;;;;108132;1272;22578;-30
2022/12/10 01:17:03;;;;;;;15.10;13.60;;;;;;;;;;108162;1277;22568;-30
2022/12/10 01:19:36;;;;;;;15.10;13.40;;;;;;;;;;108209;1273;22581;-30
2022/12/10 01:22:09;;;;;;;13.90;12.50;;;;;;;;;;108090;1272;22585;-30
2022/12/10 01:24:42;;;;;;;14.30;12.20;;;;;;;;;;108087;1275;24002;-30
2022/12/10 01:27:14;;;;;;;14.10;12.70;;;;;;;;;;108086;1273;24836;-30
2022/12/10 01:29:49;;;;;;;14.40;13.00;;;;;;;;;;108074;1279;24863;-30
2022/12/10 01:32:21;;;;;;;13.40;11.90;;;;;;;;;;108057;1277;22518;-30
2022/12/10 01:34:56;;;;;;;15.60;12.70;;;;;;;;;;108136;1277;22549;-30
2022/12/10 01:37:30;;;;;;;14.30;12.80;;;;;;;;;;108162;1273;22585;-30
2022/12/10 01:40:02;;;;;;;14.50;13.00;;;;;;;;;;108168;1278;22580;-30
2022/12/10 01:42:36;;;;;;;13.30;11.90;;;;;;;;;;108119;1275;24865;-30
2022/12/10 01:45:15;;;;;;;14.10;12.60;;;;;;;;;;108074;1276;25424;-30
2022/12/10 01:47:47;;;;;;;14.40;12.90;;;;;;;;;;108094;1278;22600;-30
2022/12/10 01:50:21;;;;;;;15.50;12.90;;;;;;;;;;108068;1277;24899;-30
2022/12/10 01:52:54;;;;;;;14.20;12.00;;;;;;;;;;108087;1279;24871;-30
2022/12/10 01:55:56;;;;;;;13.40;12.00;;;;;;;;;;108165;1273;22562;-30
2022/12/10 01:58:31;;;;;;;14.00;12.50;;;;;;;;;;108108;1275;22565;-30
2022/12/10 02:01:11;;;;;;;14.60;13.00;;;;;;;;;;108172;1275;22570;-30
2022/12/10 02:04:00;;;;;;;14.00;12.50;;;;;;;;;;108071;1279;24865;-30
2022/12/10 02:06:42;;;;;;;14.40;12.90;;;;;;;;;;108101;1280;22581;-30
2022/12/10 02:09:28;;;;;;;14.10;12.60;;;;;;;;;;108079;1273;22582;-30
2022/12/10 02:12:15;;;;;;;15.70;13.50;;;;;;;;;;108080;1279;23304;-30
2022/12/10 02:14:56;;;;;;;13.10;11.80;;;;;;;;;;108138;1268;22582;-30
2022/12/10 02:17:39;;;;;;;14.60;12.20;;;;;;;;;;108155;1277;23408;-30
2022/12/10 02:20:20;;;;;;;14.90;12.50;;;;;;;;;;108174;1271;22589;-30
2022/12/10 02:22:55;;;;;;;15.40;13.50;;;;;;;;;;108149;1270;25414;-30
2022/12/10 02:25:48;;;;;;;14.10;12.40;;;;;;;;;;108073;1279;22633;-30
2022/12/10 02:28:31;;;;;;;14.50;12.40;;;;;;;;;;108078;1279;22124;-30
2022/12/10 02:31:04;;;;;;;14.10;12.60;;;;;;;;;;108058;1272;24858;-30
2022/12/10 02:33:43;;;;;;;14.80;12.60;;;;;;;;;;108056;1278;22577;-30
2022/12/10 02:36:19;;;;;;;14.30;12.30;;;;;;;;;;108168;1274;22660;-30
2022/12/10 02:38:54;;;;;;;14.30;12.00;;;;;;;;;;108180;1276;22595;-30
2022/12/10 02:41:31;;;;;;;13.70;12.10;;;;;;;;;;108180;1278;22576;-30
2022/12/10 02:44:08;;;;;;;14.30;12.30;;;;;;;;;;108115;1275;22585;-30
2022/12/10 02:46:43;;;;;;;13.90;12.40;;;;;;;;;;108075;1279;22584;-30
2022/12/10 02:49:20;;;;;;;14.20;12.60;;;;;;;;;;108091;1273;22568;-30
2022/12/10 02:51:53;;;;;;;14.30;12.80;;;;;;;;;;108093;1276;22580;-30
2022/12/10 02:54:45;;;;;;;14.80;12.60;;;;;;;;;;108084;1278;24961;-30
2022/12/10 02:57:33;;;;;;;14.40;12.80;;;;;;;;;;108185;1272;22574;-30
2022/12/10 03:00:16;;;;;;;14.00;12.50;;;;;;;;;;108174;1272;22804;-30
2022/12/10 03:03:18;;;;;;;14.00;12.50;;;;;;;;;;108155;1271;21953;-30
2022/12/10 03:05:56;;;;;;;14.20;12.70;;;;;;;;;;108261;1274;25416;-30
2022/12/10 03:08:34;;;;;;;14.10;12.60;;;;;;;;;;108166;1277;22602;-30
2022/12/10 03:11:12;;;;;;;13.70;12.20;;;;;;;;;;108164;1272;25434;-30
2022/12/10 03:13:55;;;;;;;15.30;13.10;;;;;;;;;;108136;1273;22576;-30
2022/12/10 03:16:32;;;;;;;15.00;12.30;;;;;;;;;;108056;1274;22578;-30
2022/12/10 03:19:12;;;;;;;13.60;12.20;;;;;;;;;;108099;1272;24879;-30
2022/12/10 03:21:47;;;;;;;14.40;12.00;;;;;;;;;;108081;1272;22578;-30
2022/12/10 03:24:24;;;;;;;13.50;11.90;;;;;;;;;;108056;1272;30959;-30
2022/12/10 03:26:57;;;;;;;13.60;12.20;;;;;;;;;;108172;1272;22567;-30
2022/12/10 03:29:35;;;;;;;13.00;11.60;;;;;;;;;;108152;1272;24868;-30
2022/12/10 03:32:10;;;;;;;13.40;11.90;;;;;;;;;;108180;1274;22604;-30
2022/12/10 03:34:48;;;;;;;12.80;11.40;;;;;;;;;;108160;1271;22690;-30
2022/12/10 03:37:24;;;;;;;13.40;12.00;;;;;;;;;;108061;1272;22789;-30
2022/12/10 03:39:58;;;;;;;13.70;11.80;;;;;;;;;;108063;1271;22613;-30
2022/12/10 03:42:34;;;;;;;13.50;11.80;;;;;;;;;;108078;1278;22583;-30
2022/12/10 03:45:09;;;;;;;12.40;11.10;;;;;;;;;;108055;1274;22663;-30
2022/12/10 03:47:42;;;;;;;13.90;11.90;;;;;;;;;;108166;1273;25423;-30
2022/12/10 03:50:15;;;;;;;12.70;11.20;;;;;;;;;;108183;1276;23367;-30
2022/12/10 03:52:50;;;;;;;13.30;11.40;;;;;;;;;;108161;1268;22584;-30
2022/12/10 03:55:22;;;;;;;13.80;12.00;;;;;;;;;;108113;1276;22529;-30
2022/12/10 03:57:55;;;;;;;14.00;11.30;;;;;;;;;;108087;1277;22677;-30
2022/12/10 04:00:27;;;;;;;12.90;11.50;;;;;;;;;;108081;1270;25424;-30
2022/12/10 04:03:00;;;;;;;13.20;11.80;;;;;;;;;;108101;1273;22569;-30
2022/12/10 04:05:34;;;;;;;13.80;11.50;;;;;;;;;;108041;1277;22771;-30
2022/12/10 04:08:07;;;;;;;13.60;12.00;;;;;;;;;;108149;1276;22562;-30
2022/12/10 04:10:40;;;;;;;14.20;12.40;;;;;;;;;;108155;1272;22578;-30
2022/12/10 04:18:53;;;;;;;13.90;11.40;;;;;;;;;;108077;1280;22570;-30
2022/12/10 04:27:12;;;;;;;12.50;11.10;;;;;;;;;;108110;1272;22559;-30
2022/12/10 04:29:45;;;;;;;12.40;11.00;;;;;;;;;;108186;1278;26094;-30
2022/12/10 04:32:18;;;;;;;13.50;11.70;;;;;;;;;;108164;1272;22552;-30
2022/12/10 04:34:51;;;;;;;13.80;11.40;;;;;;;;;;108171;1278;22572;-30
2022/12/10 04:37:25;;;;;;;12.90;11.50;;;;;;;;;;108040;1274;22536;-30
2022/12/10 04:39:58;;;;;;;13.30;11.50;;;;;;;;;;108108;1277;23364;-30
2022/12/10 04:42:30;;;;;;;13.70;11.50;;;;;;;;;;108066;1272;22884;-30
2022/12/10 04:45:03;;;;;;;13.10;11.20;;;;;;;;;;108081;1267;22603;-30
2022/12/10 04:47:35;;;;;;;12.40;11.00;;;;;;;;;;108109;1271;22883;-30
2022/12/10 04:50:11;;;;;;;14.50;11.40;;;;;;;;;;108149;1279;25665;-30
2022/12/10 04:52:44;;;;;;;12.60;10.80;;;;;;;;;;108159;1274;24930;-30
2022/12/10 04:55:17;;;;;;;12.80;10.50;;;;;;;;;;108127;1274;22568;-30
2022/12/10 04:57:49;;;;;;;12.30;10.90;;;;;;;;;;108088;1273;23929;-30
2022/12/10 05:00:22;;;;;;;12.70;11.00;;;;;;;;;;108057;1272;22555;-30
2022/12/10 05:02:55;;;;;;;13.50;11.20;;;;;;;;;;108052;1278;22545;-30
2022/12/10 05:05:26;;;;;;;;;;;;;;;;;;107860;1272;322798;-30
2022/12/10 05:07:58;;;;;;;12.80;10.40;;;;;;;;;;108129;1266;22571;-30
2022/12/10 05:10:31;;;;;;;12.30;10.40;;;;;;;;;;108167;1278;22579;-30
2022/12/10 05:13:05;;;;;;;12.60;11.00;;;;;;;;;;108156;1271;25223;-30
2022/12/10 05:15:41;;;;;;;12.50;11.20;;;;;;;;;;108147;1278;22582;-30
2022/12/10 05:18:16;;;;;;;12.50;10.90;;;;;;;;;;108067;1271;22595;-30
2022/12/10 05:20:52;;;;;;;14.00;11.70;;;;;;;;;;108045;1272;22575;-30
2022/12/10 05:23:30;;;;;;;12.00;10.00;;;;;;;;;;108068;1275;25242;-30
2022/12/10 05:26:09;;;;;;;13.20;10.70;;;;;;;;;;108087;1268;22577;-30
2022/12/10 05:28:44;;;;;;;12.80;11.40;;;;;;;;;;108119;1271;22568;-30
2022/12/10 05:31:20;;;;;;;13.70;10.60;;;;;;;;;;108149;1271;22577;-30
2022/12/10 05:33:54;;;;;;;13.00;11.10;;;;;;;;;;108153;1271;25419;-30
2022/12/10 05:36:30;;;;;;;13.20;10.80;;;;;;;;;;108161;1271;22582;-30
2022/12/10 05:39:08;;;;;;;12.60;10.00;;;;;;;;;;108034;1274;24844;-30
2022/12/10 05:41:43;;;;;;;15.80;11.20;;;;;;;;;;108050;1279;25229;-30
2022/12/10 05:44:18;;;;;;;14.00;10.90;;;;;;;;;;108073;1274;22609;-30
2022/12/10 05:46:51;;;;;;;13.20;10.70;;;;;;;;;;108079;1276;25296;-30
2022/12/10 05:49:23;;;;;;;14.40;11.50;;;;;;;;;;108107;1272;22584;-30
2022/12/10 05:51:58;;;;;;;13.30;11.00;;;;;;;;;;108162;1272;21903;-30
2022/12/10 05:54:31;;;;;;;13.40;10.40;;;;;;;;;;108180;1272;22581;-30
2022/12/10 05:57:04;;;;;;;14.10;11.40;;;;;;;;;;108185;1269;26080;-30
2022/12/10 05:59:36;;;;;;;11.70;10.30;;;;;;;;;;108156;1271;25390;-30
2022/12/10 06:02:09;;;;;;;12.60;10.00;;;;;;;;;;108158;1271;22559;-30
2022/12/10 06:04:41;;;;;;;13.20;10.90;;;;;;;;;;108161;1272;22617;-30
2022/12/10 06:07:14;;;;;;;13.20;10.90;;;;;;;;;;108137;1272;23280;-30
2022/12/10 06:09:48;;;;;;;12.30;10.20;;;;;;;;;;108027;1274;24133;-30
2022/12/10 06:12:21;;;;;;;13.10;10.10;;;;;;;;;;108072;1273;22609;-30
2022/12/10 06:14:53;;;;;;;15.00;10.30;;;;;;;;;;108078;1274;22567;-30
2022/12/10 06:17:30;;;;;;;13.70;10.80;;;;;;;;;;108061;1274;22572;-30
2022/12/10 06:20:03;;;;;;;12.00;10.10;;;;;;;;;;108101;1274;22567;-30
2022/12/10 06:22:38;;;;;;;12.00;9.40;;;;;;;;;;108142;1271;22610;-30
2022/12/10 06:25:13;;;;;;;12.80;10.20;;;;;;;;;;108160;1271;24848;-30
2022/12/10 06:27:45;;;;;;;11.80;9.60;;;;;;;;;;108146;1277;22586;-30
2022/12/10 06:30:18;;;;;;;13.40;11.00;;;;;;;;;;108029;1272;22674;-30
2022/12/10 06:32:51;;;;;;;12.30;9.80;;;;;;;;;;108085;1271;24833;-30
2022/12/10 06:35:29;;;;;;;14.30;10.20;;;;;;;;;;108069;1273;22573;-30
2022/12/10 06:38:01;;;;;;;10.90;9.60;;;;;;;;;;108097;1274;22600;-30
2022/12/10 06:40:34;;;;;;;12.40;9.80;;;;;;;;;;108129;1271;22587;-30
2022/12/10 06:43:07;;;;;;;12.70;9.90;;;;;;;;;;108168;1272;25397;-30
2022/12/10 06:45:44;;;;;;;11.10;9.30;;;;;;;;;;108157;1273;22581;-30
2022/12/10 06:48:19;;;;;;;12.20;10.00;;;;;;;;;;108166;1272;23729;-30
2022/12/10 06:50:57;;;;;;;11.80;9.70;;;;;;;;;;108039;1273;22582;-30
2022/12/10 06:53:32;;;;;;;13.50;10.20;;;;;;;;;;108074;1273;22583;-30
2022/12/10 06:56:08;;;;;;;12.50;9.70;;;;;;;;;;108070;1273;25240;-30
2022/12/10 06:58:41;;;;;;;11.10;9.50;;;;;;;;;;108083;1277;25417;-30
2022/12/10 07:01:15;;;;;;;;;;;;;;;;;;108179;1272;23286;-30
2022/12/10 07:03:55;;;;;;;12.60;10.10;;;;;;;;;;108187;1271;22566;-30
2022/12/10 07:06:29;;;;;;;11.10;9.20;;;;;;;;;;108158;1272;23286;-30
2022/12/10 07:09:04;;;;;;;12.50;9.80;;;;;;;;;;108156;1278;23207;-30
2022/12/10 07:11:38;;;;;;;12.70;10.20;;;;;;;;;;108078;1273;22604;-30
2022/12/10 07:14:12;;;;;;;12.20;10.10;;;;;;;;;;108073;1274;22568;-30
2022/12/10 07:16:45;;;;;;;11.40;9.60;;;;;;;;;;108121;1271;25429;-30
2022/12/10 07:19:18;;;;;;;12.30;9.70;;;;;;;;;;108038;1271;22650;-30
2022/12/10 07:21:51;;;;;;;11.60;10.00;;;;;;;;;;108176;1271;22559;-30
2022/12/10 07:24:24;;;;;;;11.60;9.80;;;;;;;;;;108202;1271;23879;-30
2022/12/10 07:26:55;;;;;;;;;;;;;;;;;;108170;1271;22554;-30
2022/12/10 07:29:28;;;;;;;12.00;9.60;;;;;;;;;;108141;1271;22584;-28
2022/12/10 07:32:00;;;;;;;11.90;9.90;;;;;;;;;;108102;1272;22588;-28
2022/12/10 07:34:33;;;;;;;11.40;9.20;;;;;;;;;;108075;1272;24839;-28
2022/12/10 07:37:06;;;;;;;13.10;10.40;;;;;;;;;;108079;1264;22572;-28
2022/12/10 07:39:39;;;;;;;11.50;9.50;;;;;;;;;;108089;1277;24825;-32
2022/12/10 07:42:11;;;;;;;11.40;9.20;;;;;;;;;;108260;1271;22573;-32
2022/12/10 07:44:44;;;;;;;11.50;9.10;;;;;;;;;;108197;1272;22601;-32
2022/12/10 07:47:16;;;;;;;12.80;10.10;;;;;;;;;;108215;1271;22568;-32
2022/12/10 07:49:49;;;;;;;11.20;9.30;;;;;;;;;;108176;1269;22655;-32
2022/12/10 07:52:23;;;;;;;11.90;9.40;;;;;;;;;;108115;1273;22573;-32
2022/12/10 07:54:55;;;;;;;11.90;9.60;;;;;;;;;;108106;1271;22579;-32
2022/12/10 07:57:28;;;;;;;11.10;9.70;;;;;;;;;;108125;1271;25446;-32
2022/12/10 08:00:01;;;;;;;11.50;9.20;;;;;;;;;;108051;1274;22548;-28
2022/12/10 08:02:34;;;;;;;11.30;9.60;;;;;;;;;;108173;1272;22566;-27
2022/12/10 08:05:08;;;;;;;11.40;9.10;;;;;;;;;;108156;1271;23405;-27
2022/12/10 08:07:45;;;;;;;10.30;8.90;;;;;;;;;;108147;1271;25393;-29
2022/12/10 08:10:19;;;;;;;11.10;9.10;;;;;;;;;;108129;1272;22998;-30
2022/12/10 08:12:52;;;;;;;11.00;9.10;;;;;;;;;;108062;1274;22575;-29
2022/12/10 08:15:23;;;;;;;;;;;;;;;;;;108137;1272;23899;-29
2022/12/10 08:17:56;;;;;;;10.60;8.70;;;;;;;;;;108074;1273;22731;-30
2022/12/10 08:20:30;;;;;;;;;;;;;;;;;;108072;1277;22549;-30
2022/12/10 08:23:03;;;;;;;10.30;8.60;;;;;;;;;;108170;1272;22593;-29
2022/12/10 08:25:35;;;;;;;12.00;9.50;;;;;;;;;;108156;1270;22562;-30
2022/12/10 08:28:09;;;;;;;;;;;;;;;;;;108166;1272;22553;-30
2022/12/10 08:30:42;;;;;;;11.10;8.60;;;;;;;;;;108159;1271;25003;-30
2022/12/10 08:33:19;;;;;;;12.10;8.90;;;;;;;;;;108077;1273;24840;-29
2022/12/10 08:35:51;;;;;;;10.30;8.40;;;;;;;;;;108083;1274;24908;-30
2022/12/10 08:38:24;;;;;;;11.00;8.80;;;;;;;;;;108089;1272;22572;-30
2022/12/10 08:40:57;;;;;;;11.30;9.40;;;;;;;;;;108046;1279;22536;-29
2022/12/10 08:43:30;;;;;;;10.80;8.70;;;;;;;;;;108110;1274;22580;-29
2022/12/10 08:46:03;;;;;;;10.60;8.90;;;;;;;;;;108131;1272;22584;-28
2022/12/10 08:48:36;;;;;;;10.70;8.80;;;;;;;;;;108142;1271;22564;-29
2022/12/10 08:51:14;;;;;;;11.10;8.80;;;;;;;;;;108163;1271;23376;-29
2022/12/10 08:53:47;;;;;;;10.60;9.10;;;;;;;;;;108082;1272;23370;-29
2022/12/10 08:56:19;;;;;;;11.80;9.00;;;;;;;;;;108160;1273;25882;-29
2022/12/10 08:58:52;;;;;;;11.20;9.10;;;;;;;;;;108180;1274;22586;-30
2022/12/10 09:01:28;;;;;;;10.80;8.80;;;;;;;;;;108207;1279;22559;-30
2022/12/10 09:04:00;;;;;;;;;;;;;;;;;;108137;1274;22965;-30
2022/12/10 09:06:33;;;;;;;10.00;8.00;;;;;;;;;;108143;1265;22581;-30
2022/12/10 09:09:08;;;;;;;10.80;9.00;;;;;;;;;;108177;1271;22624;-31
2022/12/10 09:11:41;;;;;;;11.00;8.50;;;;;;;;;;108136;1275;23884;-30
2022/12/10 09:14:14;;;;;;;9.60;7.90;;;;;;;;;;108120;1273;23088;-30
2022/12/10 09:16:48;;;;;;;;;;;;;;;;;;108153;1274;23894;-30
2022/12/10 09:19:21;;;;;;;10.40;8.10;;;;;;;;;;108139;1271;23909;-30
2022/12/10 09:21:53;;;;;;;10.80;8.10;;;;;;;;;;108112;1273;24864;-30
2022/12/10 09:24:26;;;;;;;9.70;7.90;;;;;;;;;;108156;1271;24854;-29
2022/12/10 09:27:02;;;;;;;9.90;8.00;;;;;;;;;;108164;1271;22624;-29
2022/12/10 09:29:39;;;;;;;10.20;8.30;;;;;;;;;;108181;1268;22585;-32
2022/12/10 09:32:13;;;;;;;9.40;8.10;;;;;;;;;;108148;1271;24824;-33
2022/12/10 09:34:45;;;;;;;10.70;7.80;;;;;;;;;;108074;1274;22567;-34
2022/12/10 09:37:21;;;;;;;9.50;7.60;;;;;;;;;;108021;1273;22570;-34
2022/12/10 09:39:54;;;;;;;10.50;7.80;;;;;;;;;;108066;1276;25282;-33
2022/12/10 09:42:45;;;;;;;9.80;7.50;;;;;;;;;;108056;1273;25349;-34
2022/12/10 09:45:31;;;;;;;9.80;7.40;;;;;;;;;;108180;1279;22643;-33
2022/12/10 09:48:16;;;;;;;9.90;8.10;;;;;;;;;;108127;1265;22574;-34
2022/12/10 09:50:59;;;;;;;9.50;7.40;;;;;;;;;;108144;1271;23812;-34
2022/12/10 09:53:34;;;;;;;9.20;7.60;;;;;;;;;;108106;1271;22557;-33
2022/12/10 09:56:19;;;;;;;9.20;7.00;;;;;;;;;;108164;1272;22571;-33
2022/12/10 09:58:54;;;;;;;8.70;7.20;;;;;;;;;;108170;1271;23294;-34
2022/12/10 10:01:32;;;;;;;8.70;6.90;;;;;;;;;;108104;1271;22593;-34
2022/12/10 10:04:07;;;;;;;9.60;7.50;;;;;;;;;;108842;1275;22582;-34
2022/12/10 10:06:44;;;;;;;8.60;7.00;;;;;;;;;;108179;1271;22572;-34
2022/12/10 10:09:22;;;;;;;8.50;7.10;;;;;;;;;;108160;1271;22605;-34
2022/12/10 10:12:00;;;;;;;9.10;7.20;;;;;;;;;;108161;1271;23983;-34
2022/12/10 10:14:36;;;;;;;9.90;7.90;;;;;;;;;;108143;1271;22558;-34
2022/12/10 10:17:17;;;;;;;9.60;7.20;;;;;;;;;;108175;1269;22609;-34
2022/12/10 10:19:53;;;;;;;9.30;7.00;;;;;;;;;;108216;1265;22608;-34
2022/12/10 10:22:29;;;;;;;8.50;7.10;;;;;;;;;;108181;1271;22511;-34
2022/12/10 10:25:04;;;;;;;9.10;7.10;;;;;;;;;;108134;1272;22719;-34
2022/12/10 10:27:39;;;;;;;8.80;6.60;;;;;;;;;;108117;1272;22572;-34
2022/12/10 10:30:24;;;;;;;9.10;7.00;;;;;;;;;;108146;1271;22578;-34
2022/12/10 10:32:59;;;;;;;8.80;7.00;;;;;;;;;;108176;1271;22571;-34
2022/12/10 10:35:42;;;;;;;8.30;6.70;;;;;;;;;;108149;1271;26417;-34
2022/12/10 10:38:26;;;;;;;9.90;7.50;;;;;;;;;;108182;1271;22595;-34
2022/12/10 10:41:05;;;;;;;;;;;;;;;;;;108186;1272;22569;-34
2022/12/10 10:43:47;;;;;;;9.20;7.50;;;;;;;;;;108187;1271;22606;-34
2022/12/10 10:46:25;;;;;;;9.50;7.40;;;;;;;;;;108285;1265;25869;-28
2022/12/10 10:49:24;;;;;;;9.60;7.60;;;;;;;;;;108172;1271;23286;-28
2022/12/10 10:52:03;;;;;;;9.50;7.40;;;;;;;;;;108160;1275;22580;-28
2022/12/10 10:54:42;;;;;;;8.70;7.40;;;;;;;;;;108114;1271;24815;-29
2022/12/10 10:57:19;;;;;;;9.90;7.50;;;;;;;;;;108176;1272;23845;-28
2022/12/10 10:59:55;;;;;;;9.80;7.70;;;;;;;;;;108163;1268;22584;-28
2022/12/10 11:02:35;;;;;;;9.20;7.30;;;;;;;;;;108189;1273;22549;-28
2022/12/10 11:05:25;;;;;;;8.80;6.90;;;;;;;;;;108124;1274;22552;-28
2022/12/10 11:08:15;;;;;;;9.60;7.50;;;;;;;;;;108198;1272;22662;-28
2022/12/10 11:11:00;;;;;;;9.50;7.80;;;;;;;;;;108175;1271;22585;-28
2022/12/10 11:13:35;;;;;;;9.10;7.50;;;;;;;;;;108180;1273;22877;-28
2022/12/10 11:16:22;;;;;;;9.70;7.70;;;;;;;;;;108127;1274;22572;-28
2022/12/10 11:19:04;;;;;;;9.90;8.10;;;;;;;;;;108166;1272;22586;-28
2022/12/10 11:21:38;;;;;;;9.90;7.50;;;;;;;;;;108195;1277;22605;-28
2022/12/10 11:24:16;;;;;;;9.90;7.90;;;;;;;;;;108161;1274;22571;-28
2022/12/10 11:27:05;;;;;;;10.50;7.40;;;;;;;;;;108161;1273;26063;-28
2022/12/10 11:29:53;;;;;;;9.90;7.60;;;;;;;;;;108187;1269;22587;-28
2022/12/10 11:32:42;;;;;;;9.70;7.30;;;;;;;;;;108155;1275;22564;-28
2022/12/10 11:35:30;;;;;;;8.80;7.20;;;;;;;;;;108129;1275;25377;-28
2022/12/10 11:38:11;;;;;;;9.20;7.60;;;;;;;;;;108168;1274;22594;-28
2022/12/10 11:40:52;;;;;;;10.70;7.70;;;;;;;;;;108155;1273;23556;-28
2022/12/10 11:44:15;;;;;;;9.30;7.80;;;;;;;;;;108167;1272;22561;-28
2022/12/10 11:47:29;;;;;;;10.50;7.90;;;;;;;;;;108094;1274;22560;-28
2022/12/10 11:50:16;;;;;;;15.10;12.10;;;;;;;;;;108089;1275;22653;-28
2022/12/10 11:53:08;;;;;;;13.40;10.40;;;;;;;;;;108157;1277;22571;-27
2022/12/10 11:56:04;;;;;;;13.60;10.40;;;;;;;;;;108136;1279;24957;-28
2022/12/10 11:58:55;;;;;;;12.90;9.90;;;;;;;;;;108132;1274;22581;-27
2022/12/10 12:01:53;;;;;;;13.80;10.20;;;;;;;;;;108086;1271;22585;-28
2022/12/10 12:04:43;;;;;;;14.30;9.80;;;;;;;;;;108045;1277;22594;-28
2022/12/10 12:07:36;;;;;;;14.20;10.40;;;;;;;;;;108105;1272;23332;-27
2022/12/10 12:10:42;;;;;;;13.40;10.20;;;;;;;;;;108250;1275;23889;-28
2022/12/10 12:13:20;;;;;;;13.10;10.20;;;;;;;;;;108313;1271;23810;-27
2022/12/10 12:15:59;;;;;;;10.90;8.70;;;;;;;;;;108324;1279;22695;-28
2022/12/10 12:18:48;;;;;;;13.50;9.70;;;;;;;;;;108208;1274;22978;-28
2022/12/10 12:21:22;;;;;;;13.00;9.10;;;;;;;;;;108248;1272;22572;-27
2022/12/10 12:24:02;;;;;;;14.00;10.60;;;;;;;;;;108225;1274;22588;-28
2022/12/10 12:26:39;;;;;;;13.50;9.00;;;;;;;;;;108138;1271;24467;-28
2022/12/10 12:29:23;;;;;;;11.60;8.40;;;;;;;;;;108202;1272;22670;-27
2022/12/10 12:32:02;;;;;;;10.20;8.10;;;;;;;;;;108200;1278;22568;-28
2022/12/10 12:34:48;;;;;;;11.50;9.40;;;;;;;;;;108149;1272;22625;-28
2022/12/10 12:37:31;;;;;;;11.40;8.10;;;;;;;;;;108127;1277;22561;-27
2022/12/10 12:40:14;;;;;;;11.90;9.00;;;;;;;;;;108277;1271;22676;-27
2022/12/10 12:42:53;;;;;;;10.70;8.60;;;;;;;;;;108219;1272;22549;-30
2022/12/10 12:45:46;;;;;;;11.20;7.90;;;;;;;;;;108224;1272;24879;-30
2022/12/10 12:48:31;;;;;;;11.30;7.80;;;;;;;;;;108175;1268;22517;-30
2022/12/10 12:51:13;;;;;;;10.40;7.80;;;;;;;;;;108108;1272;22572;-31
2022/12/10 12:53:47;;;;;;;12.20;8.80;;;;;;;;;;108117;1273;22587;-31
2022/12/10 12:56:35;;;;;;;10.90;8.10;;;;;;;;;;108120;1278;24871;-30
2022/12/10 12:59:27;;;;;;;10.40;7.70;;;;;;;;;;108255;1278;22684;-31
2022/12/10 13:02:18;;;;;;;10.80;7.80;;;;;;;;;;108342;1271;22635;-31
2022/12/10 13:04:56;;;;;;;10.30;7.10;;;;;;;;;;108205;1275;25421;-31
2022/12/10 13:07:35;;;;;;;12.40;8.10;;;;;;;;;;107888;1271;333126;-29
2022/12/10 13:10:30;;;;;;;9.80;7.20;;;;;;;;;;108129;1279;22586;-30
2022/12/10 13:13:32;;;;;;;10.50;8.10;;;;;;;;;;108017;1273;22594;-32
2022/12/10 13:17:02;;;;;;;11.20;7.70;;;;;;;;;;108076;1274;22596;-30
2022/12/10 13:19:36;;;;;;;10.10;7.30;;;;;;;;;;108263;1271;25286;-31
2022/12/10 13:22:44;;;;;;;10.30;6.80;;;;;;;;;;108169;1275;22562;-31
2022/12/10 13:25:23;;;;;;;8.80;6.40;;;;;;;;;;109716;1274;22593;-31
2022/12/10 13:28:25;;;;;;;8.20;6.00;;;;;;;;;;108729;1275;23880;-32
2022/12/10 13:31:40;;;;;;;10.80;6.90;;;;;;;;;;108006;1280;22560;-31
2022/12/10 13:34:38;;;;;;;8.50;6.30;;;;;;;;;;107875;1273;22562;-32
2022/12/10 13:37:33;;;;;;;8.10;6.40;;;;;;;;;;108389;1279;22692;-32
2022/12/10 13:40:28;;;;;;;8.50;6.20;;;;;;;;;;108112;1271;22572;-31
2022/12/10 13:46:36;;;;;;;8.50;6.00;;;;;;;;;;108167;1273;22570;-31
2022/12/10 13:49:19;;;;;;;7.80;5.80;;;;;;;;;;108086;1275;22574;-31
2022/12/10 13:52:01;;;;;;;8.60;5.80;;;;;;;;;;108058;1274;22568;-31
2022/12/10 13:55:07;;;;;;;9.00;6.60;;;;;;;;;;108145;1271;22559;-31
2022/12/10 13:58:10;;;;;;;8.70;5.90;;;;;;;;;;108084;1277;22575;-31
2022/12/10 14:00:51;;;;;;;7.60;6.10;;;;;;;;;;108124;1278;22649;-31
2022/12/10 14:03:51;;;;;;;8.40;5.50;;;;;;;;;;108163;1271;22566;-32
2022/12/10 14:06:28;;;;;;;9.00;6.30;;;;;;;;;;108186;1275;22574;-31
2022/12/10 14:09:06;;;;;;;8.10;6.00;;;;;;;;;;108169;1271;23199;-31
2022/12/10 14:11:44;;;;;;;12.60;5.90;;;;;;;;;;108098;1273;22549;-31
2022/12/10 14:14:31;;;;;;;7.40;5.60;;;;;;;;;;108078;1280;22618;-31
2022/12/10 14:17:06;;;;;;;7.60;5.70;;;;;;;;;;108075;1273;25283;-30
2022/12/10 14:19:51;;;;;;;7.60;5.60;;;;;;;;;;108104;1272;22656;-31
2022/12/10 14:22:33;;;;;;;8.50;6.00;;;;;;;;;;108159;1275;22567;-31
2022/12/10 14:25:17;;;;;;;8.30;5.70;;;;;;;;;;108164;1268;22592;-31
2022/12/10 14:27:55;;;;;;;8.10;5.90;;;;;;;;;;108195;1272;22574;-31
2022/12/10 14:30:32;;;;;;;8.60;6.30;;;;;;;;;;108096;1274;22565;-31
2022/12/10 14:33:11;;;;;;;8.70;6.40;;;;;;;;;;108065;1273;24937;-30
2022/12/10 14:35:58;;;;;;;8.30;6.20;;;;;;;;;;108050;1271;22579;-30
2022/12/10 14:38:35;;;;;;;9.70;6.10;;;;;;;;;;108070;1277;24772;-28
2022/12/10 14:41:13;;;;;;;8.50;5.40;;;;;;;;;;108135;1271;25173;-28
2022/12/10 14:43:46;;;;;;;7.90;5.70;;;;;;;;;;108197;1271;24818;-28
2022/12/10 14:46:26;;;;;;;8.80;6.00;;;;;;;;;;108214;1271;25332;-28
2022/12/10 14:48:59;;;;;;;7.10;5.40;;;;;;;;;;108203;1278;25230;-34
2022/12/10 14:51:39;;;;;;;7.80;5.50;;;;;;;;;;108130;1273;25697;-34
2022/12/10 14:54:33;;;;;;;7.60;5.50;;;;;;;;;;108145;1273;24905;-34
2022/12/10 14:57:15;;;;;;;7.90;5.80;;;;;;;;;;108077;1277;22565;-29
2022/12/10 14:59:54;;;;;;;8.00;5.80;;;;;;;;;;108067;1271;22572;-29
2022/12/10 15:02:33;;;;;;;7.80;5.80;;;;;;;;;;108212;1272;23913;-29
2022/12/10 15:05:14;;;;;;;9.40;6.10;;;;;;;;;;108174;1272;22606;-29
2022/12/10 15:07:56;;;;;;;9.90;6.60;;;;;;;;;;108181;1275;23408;-29
2022/12/10 15:10:35;;;;;;;9.90;7.60;;;;;;;;;;108105;1278;24857;-29
2022/12/10 15:13:21;;;;;;;10.00;7.20;;;;;;;;;;108057;1276;22575;-32
2022/12/10 15:15:55;;;;;;;10.70;7.70;;;;;;;;;;108053;1271;22563;-32
2022/12/10 15:18:34;;;;;;;12.10;8.70;;;;;;;;;;108071;1271;24105;-32
2022/12/10 15:21:17;;;;;;;12.40;9.00;;;;;;;;;;108080;1278;22569;-32
2022/12/10 15:23:53;;;;;;;12.60;9.20;;;;;;;;;;108217;1279;22548;-34
2022/12/10 15:26:33;;;;;;;12.50;9.30;;;;;;;;;;108177;1278;22607;-34
2022/12/10 15:29:34;;;;;;;12.60;9.90;;;;;;;;;;108176;1273;23346;-34
2022/12/10 15:32:22;;;;;;;16.00;10.20;;;;;;;;;;108119;1279;22581;-35
2022/12/10 15:35:03;;;;;;;13.50;10.00;;;;;;;;;;108109;1273;22571;-34
2022/12/10 15:37:40;;;;;;;12.20;9.70;;;;;;;;;;108060;1279;22558;-34